Terminal Aerodrome Forecast
Issued by NWS Wilmington, OH

Current Version | Previous Version | Graphics & Text | Print | Product List | Glossary On
Versions: 1 2 3 4 5 6 7 8 9 10 11 12 13 14 15
000
FTUS41 KILN 301134
TAFILN
TAF
KILN 301134Z 3012/3112 18005KT P6SM SCT060 BKN120
      TEMPO 3012/3013 4SM BR
     FM301400 22009KT P6SM SCT025 BKN120
     FM301800 21007KT P6SM VCSH BKN040
     FM310000 22005KT P6SM SCT035 SCT200
      TEMPO 3108/3112 4SM BR SKC=

USA.gov is the U.S. government's official web portal to all federal, state and local government web resources and services.